Love Boat — OT3861 — position and weather

sailwx.info

Track history (hours):
 
Tides and Currents Weather Stations Pressure Air Temp Water Temp Dewpoint Dewpoint Depression Visibility Wind Speed Wind Dir Waves Ship Positions

Love Boat

Last reported at 2017-Feb-23 14:04 UTC. Time now 2017-Feb-25 22:39 UTC.
Position N 50°41' E 007°11'.

Length 110 m; draft 2 m.

Type: Ship. MMSI: 205386190.

Date/timePositionNaut miles runAvg speedWind from/ knotsBaromVisibWave heightAir tempDewpointWater temp
2017-Feb-23 14:04N 50°41' E 007°11'3 4.3
2017-Feb-23 13:23N 50°43' E 007°08'8 4.1
2017-Feb-23 11:25N 50°50' E 006°60'3 3.5
2017-Feb-23 10:26N 50°52' E 007°02'3 2.9
2017-Feb-23 09:33N 50°54' E 006°59'4 3.8
2017-Feb-23 08:29N 50°58' E 006°60'13 3.2
2017-Feb-23 04:27N 51°09' E 006°49'3 3.4
2017-Feb-23 03:33N 51°11' E 006°45'3 2.9
2017-Feb-23 02:33N 51°13' E 006°43'0 0.2
2017-Feb-23 01:32N 51°13' E 006°43'0 0.0
2017-Feb-23 00:33N 51°13' E 006°43'0 0.0
2017-Feb-22 23:33N 51°13' E 006°43'1 1.1
2017-Feb-22 22:33N 51°14' E 006°44'10 2.5
2017-Feb-22 18:33N 51°24' E 006°45'4 4.2
2017-Feb-22 17:33N 51°28' E 006°43'3 2.8
2017-Feb-22 16:33N 51°31' E 006°43'4 4.4
2017-Feb-22 15:33N 51°35' E 006°40'3 3.2
2017-Feb-22 14:31N 51°36' E 006°36'4 3.7
2017-Feb-22 13:33N 51°40' E 006°34'4 4.3
2017-Feb-22 12:33N 51°42' E 006°28'4 4.1
2017-Feb-22 11:33N 51°45' E 006°25'5 4.8
2017-Feb-22 10:33N 51°48' E 006°18'5 5.1
2017-Feb-22 09:33N 51°50' E 006°11'6 5.6
2017-Feb-22 08:33N 51°52' E 006°02'4 4.1
2017-Feb-22 07:33N 51°52' E 005°56'4 4.2
2017-Feb-22 06:33N 51°52' E 005°49'6 5.7
2017-Feb-22 05:33N 51°54' E 005°40'6 5.7
2017-Feb-22 04:29N 51°53' E 005°30'5 5.2
2017-Feb-22 03:28N 51°50' E 005°24'10 5.2
2017-Feb-22 01:30N 51°49' E 005°07'7 7.2
2017-Feb-22 00:33N 51°50' E 004°56'8 7.6
2017-Feb-21 23:33N 51°47' E 004°45'27 5.5
2017-Feb-21 18:33N 51°27' E 004°14'1 1.0
2017-Feb-21 17:32N 51°26' E 004°14'0 0.0
2017-Feb-21 16:32N 51°26' E 004°14'0 0.0
2017-Feb-21 15:29N 51°26' E 004°14'4 4.2
2017-Feb-21 14:26N 51°22' E 004°17'7 8.0
2017-Feb-21 13:33N 51°16' E 004°21'2 2.3
2017-Feb-21 12:33N 51°15' E 004°25'0 0.0
2017-Feb-21 11:33N 51°15' E 004°25'0 0.0
2017-Feb-21 10:33N 51°15' E 004°25'0 0.0
2017-Feb-21 09:33N 51°15' E 004°25'0 0.0
2017-Feb-21 08:33N 51°15' E 004°25'0 0.0
2017-Feb-21 07:33N 51°15' E 004°25'0 0.0
2017-Feb-21 06:33N 51°15' E 004°25'2 2.3
2017-Feb-21 05:33N 51°16' E 004°21'4 3.7
2017-Feb-21 04:31N 51°19' E 004°19'0 0.0
2017-Feb-21 03:30N 51°19' E 004°19'0 0.0
2017-Feb-21 02:33N 51°19' E 004°19'0 0.0
2017-Feb-21 01:33N 51°19' E 004°19'0 0.0
2017-Feb-21 00:33N 51°19' E 004°19'0 0.0
2017-Feb-20 23:33N 51°19' E 004°19'0 0.0
2017-Feb-20 22:33N 51°19' E 004°19'0 0.0
2017-Feb-20 21:32N 51°19' E 004°19'0 0.0
2017-Feb-20 20:33N 51°19' E 004°19'0 0.0
2017-Feb-20 19:33N 51°19' E 004°19'0 0.0
2017-Feb-20 18:33N 51°19' E 004°19'0 0.0
2017-Feb-20 17:29N 51°19' E 004°19'0 0.1
2017-Feb-20 16:30N 51°19' E 004°19'0 0.3
2017-Feb-20 15:30N 51°20' E 004°19'0 0.0
2017-Feb-20 14:33N 51°20' E 004°19'0 0.4
2017-Feb-20 13:33N 51°19' E 004°19'0 0.0
2017-Feb-20 12:33N 51°19' E 004°19'0 0.0
2017-Feb-20 11:33N 51°19' E 004°19'0 0.0
2017-Feb-20 10:33N 51°19' E 004°19'0 0.0
2017-Feb-20 09:33N 51°19' E 004°19'0 0.0
2017-Feb-20 08:32N 51°19' E 004°19'8 2.6
2017-Feb-20 05:33N 51°26' E 004°14'0 0.0
2017-Feb-20 04:33N 51°26' E 004°14'0 0.0
2017-Feb-20 03:33N 51°26' E 004°14'0 0.0
2017-Feb-20 02:33N 51°26' E 004°14'0 0.0
2017-Feb-20 01:32N 51°26' E 004°14'0 0.0
2017-Feb-20 00:30N 51°26' E 004°14'0 0.0
2017-Feb-19 23:33N 51°26' E 004°14'0 0.0
2017-Feb-19 22:27N 51°26' E 004°14'0 0.0
2017-Feb-19 21:32N 51°26' E 004°14'0 0.0
2017-Feb-19 20:32N 51°26' E 004°14'1 0.4
2017-Feb-19 19:16N 51°27' E 004°14'13 6.3
2017-Feb-19 17:08N 51°40' E 004°20'4 4.4
2017-Feb-19 16:20N 51°42' E 004°25'6 7.3
2017-Feb-19 15:26N 51°42' E 004°35'7 7.7
2017-Feb-19 14:33N 51°46' E 004°45'8 7.9
2017-Feb-19 13:33N 51°50' E 004°56'10 8.2
2017-Feb-19 12:20N 51°49' E 005°12'5 6.9
2017-Feb-19 11:33N 51°48' E 005°21'9 8.5
2017-Feb-19 10:33N 51°54' E 005°32'9 9.5
2017-Feb-19 09:33N 51°53' E 005°47'7 7.4
2017-Feb-19 08:33N 51°52' E 005°59'8 7.6
2017-Feb-19 07:33N 51°50' E 006°11'8 8.4
2017-Feb-19 06:33N 51°45' E 006°22'7 7.3
2017-Feb-19 05:33N 51°40' E 006°30'8 6.3
2017-Feb-19 04:18N 51°35' E 006°39'20 6.5
2017-Feb-19 01:14N 51°15' E 006°45'4 6.1
2017-Feb-19 00:33N 51°11' E 006°44'13 6.7
2017-Feb-18 22:32N 51°01' E 006°58'8 7.2
2017-Feb-18 21:29N 50°54' E 007°03'  
Track history (hours):
 
Tides and Currents Weather Stations Pressure Air Temp Water Temp Dewpoint Dewpoint Depression Visibility Wind Speed Wind Dir Waves Ship Positions

Love Boat

Last reported at 2017-Feb-23 14:04 UTC. Time now 2017-Feb-25 22:39 UTC.
Position N 50°41' E 007°11'.

Length 110 m; draft 2 m.

Type: Ship. MMSI: 205386190.

Date/timePositionNaut miles runAvg speedWind from/ knotsBaromVisibWave heightAir tempDewpointWater temp
2017-Feb-23 14:04N 50°41' E 007°11'3 4.3
2017-Feb-23 13:23N 50°43' E 007°08'8 4.1
2017-Feb-23 11:25N 50°50' E 006°60'3 3.5
2017-Feb-23 10:26N 50°52' E 007°02'3 2.9
2017-Feb-23 09:33N 50°54' E 006°59'4 3.8
2017-Feb-23 08:29N 50°58' E 006°60'13 3.2
2017-Feb-23 04:27N 51°09' E 006°49'3 3.4
2017-Feb-23 03:33N 51°11' E 006°45'3 2.9
2017-Feb-23 02:33N 51°13' E 006°43'0 0.2
2017-Feb-23 01:32N 51°13' E 006°43'0 0.0
2017-Feb-23 00:33N 51°13' E 006°43'0 0.0
2017-Feb-22 23:33N 51°13' E 006°43'1 1.1
2017-Feb-22 22:33N 51°14' E 006°44'10 2.5
2017-Feb-22 18:33N 51°24' E 006°45'4 4.2
2017-Feb-22 17:33N 51°28' E 006°43'3 2.8
2017-Feb-22 16:33N 51°31' E 006°43'4 4.4
2017-Feb-22 15:33N 51°35' E 006°40'3 3.2
2017-Feb-22 14:31N 51°36' E 006°36'4 3.7
2017-Feb-22 13:33N 51°40' E 006°34'4 4.3
2017-Feb-22 12:33N 51°42' E 006°28'4 4.1
2017-Feb-22 11:33N 51°45' E 006°25'5 4.8
2017-Feb-22 10:33N 51°48' E 006°18'5 5.1
2017-Feb-22 09:33N 51°50' E 006°11'6 5.6
2017-Feb-22 08:33N 51°52' E 006°02'4 4.1
2017-Feb-22 07:33N 51°52' E 005°56'4 4.2
2017-Feb-22 06:33N 51°52' E 005°49'6 5.7
2017-Feb-22 05:33N 51°54' E 005°40'6 5.7
2017-Feb-22 04:29N 51°53' E 005°30'5 5.2
2017-Feb-22 03:28N 51°50' E 005°24'10 5.2
2017-Feb-22 01:30N 51°49' E 005°07'7 7.2
2017-Feb-22 00:33N 51°50' E 004°56'8 7.6
2017-Feb-21 23:33N 51°47' E 004°45'27 5.5
2017-Feb-21 18:33N 51°27' E 004°14'1 1.0
2017-Feb-21 17:32N 51°26' E 004°14'0 0.0
2017-Feb-21 16:32N 51°26' E 004°14'0 0.0
2017-Feb-21 15:29N 51°26' E 004°14'4 4.2
2017-Feb-21 14:26N 51°22' E 004°17'7 8.0
2017-Feb-21 13:33N 51°16' E 004°21'2 2.3
2017-Feb-21 12:33N 51°15' E 004°25'0 0.0
2017-Feb-21 11:33N 51°15' E 004°25'0 0.0
2017-Feb-21 10:33N 51°15' E 004°25'0 0.0
2017-Feb-21 09:33N 51°15' E 004°25'0 0.0
2017-Feb-21 08:33N 51°15' E 004°25'0 0.0
2017-Feb-21 07:33N 51°15' E 004°25'0 0.0
2017-Feb-21 06:33N 51°15' E 004°25'2 2.3
2017-Feb-21 05:33N 51°16' E 004°21'4 3.7
2017-Feb-21 04:31N 51°19' E 004°19'0 0.0
2017-Feb-21 03:30N 51°19' E 004°19'0 0.0
2017-Feb-21 02:33N 51°19' E 004°19'0 0.0
2017-Feb-21 01:33N 51°19' E 004°19'0 0.0
2017-Feb-21 00:33N 51°19' E 004°19'0 0.0
2017-Feb-20 23:33N 51°19' E 004°19'0 0.0
2017-Feb-20 22:33N 51°19' E 004°19'0 0.0
2017-Feb-20 21:32N 51°19' E 004°19'0 0.0
2017-Feb-20 20:33N 51°19' E 004°19'0 0.0
2017-Feb-20 19:33N 51°19' E 004°19'0 0.0
2017-Feb-20 18:33N 51°19' E 004°19'0 0.0
2017-Feb-20 17:29N 51°19' E 004°19'0 0.1
2017-Feb-20 16:30N 51°19' E 004°19'0 0.3
2017-Feb-20 15:30N 51°20' E 004°19'0 0.0
2017-Feb-20 14:33N 51°20' E 004°19'0 0.4
2017-Feb-20 13:33N 51°19' E 004°19'0 0.0
2017-Feb-20 12:33N 51°19' E 004°19'0 0.0
2017-Feb-20 11:33N 51°19' E 004°19'0 0.0
2017-Feb-20 10:33N 51°19' E 004°19'0 0.0
2017-Feb-20 09:33N 51°19' E 004°19'0 0.0
2017-Feb-20 08:32N 51°19' E 004°19'8 2.6
2017-Feb-20 05:33N 51°26' E 004°14'0 0.0
2017-Feb-20 04:33N 51°26' E 004°14'0 0.0
2017-Feb-20 03:33N 51°26' E 004°14'0 0.0
2017-Feb-20 02:33N 51°26' E 004°14'0 0.0
2017-Feb-20 01:32N 51°26' E 004°14'0 0.0
2017-Feb-20 00:30N 51°26' E 004°14'0 0.0
2017-Feb-19 23:33N 51°26' E 004°14'0 0.0
2017-Feb-19 22:27N 51°26' E 004°14'0 0.0
2017-Feb-19 21:32N 51°26' E 004°14'0 0.0
2017-Feb-19 20:32N 51°26' E 004°14'1 0.4
2017-Feb-19 19:16N 51°27' E 004°14'13 6.3
2017-Feb-19 17:08N 51°40' E 004°20'4 4.4
2017-Feb-19 16:20N 51°42' E 004°25'6 7.3
2017-Feb-19 15:26N 51°42' E 004°35'7 7.7
2017-Feb-19 14:33N 51°46' E 004°45'8 7.9
2017-Feb-19 13:33N 51°50' E 004°56'10 8.2
2017-Feb-19 12:20N 51°49' E 005°12'5 6.9
2017-Feb-19 11:33N 51°48' E 005°21'9 8.5
2017-Feb-19 10:33N 51°54' E 005°32'9 9.5
2017-Feb-19 09:33N 51°53' E 005°47'7 7.4
2017-Feb-19 08:33N 51°52' E 005°59'8 7.6
2017-Feb-19 07:33N 51°50' E 006°11'8 8.4
2017-Feb-19 06:33N 51°45' E 006°22'7 7.3
2017-Feb-19 05:33N 51°40' E 006°30'8 6.3
2017-Feb-19 04:18N 51°35' E 006°39'20 6.5
2017-Feb-19 01:14N 51°15' E 006°45'4 6.1
2017-Feb-19 00:33N 51°11' E 006°44'13 6.7
2017-Feb-18 22:32N 51°01' E 006°58'8 7.2
2017-Feb-18 21:29N 50°54' E 007°03'  

Dump ship's entire track history